createdAt,value
2022-12-31T00:01:50.608Z,2.50
2022-12-31T00:04:37.683Z,1.62
2022-12-31T00:07:24.890Z,2.60
2022-12-31T00:10:12.082Z,1.35
2022-12-31T00:12:59.627Z,2.80
2022-12-31T00:15:47.061Z,2.27
2022-12-31T00:18:34.593Z,5.00
2022-12-31T00:21:24.063Z,2.35
2022-12-31T00:24:13.134Z,2.98
2022-12-31T00:27:00.421Z,1.98
2022-12-31T00:29:47.648Z,1.25
2022-12-31T00:32:35.071Z,1.30
2022-12-31T00:35:22.339Z,1.60
2022-12-31T00:38:09.848Z,2.40
2022-12-31T00:40:57.068Z,3.47
2022-12-31T00:43:44.357Z,2.02
2022-12-31T00:46:31.902Z,2.10
2022-12-31T00:49:19.490Z,1.77
2022-12-31T00:52:06.993Z,1.60
2022-12-31T00:54:54.559Z,3.50
2022-12-31T00:57:41.841Z,2.52
2022-12-31T01:00:29.406Z,2.40
2022-12-31T01:03:17.056Z,3.05
2022-12-31T01:06:08.263Z,2.85
2022-12-31T01:08:56.137Z,3.00
2022-12-31T01:11:43.662Z,1.27
2022-12-31T01:14:33.758Z,1.27
2022-12-31T01:17:23.198Z,1.40
2022-12-31T01:20:10.340Z,1.10
2022-12-31T01:22:57.742Z,2.67
2022-12-31T01:25:45.219Z,4.05
2022-12-31T01:28:33.187Z,0.93
2022-12-31T01:31:24.038Z,1.10
2022-12-31T01:34:11.322Z,0.95
2022-12-31T01:37:01.490Z,1.22
2022-12-31T01:39:48.709Z,0.80
2022-12-31T01:42:36.015Z,0.60
2022-12-31T01:45:25.026Z,0.78
2022-12-31T01:48:15.033Z,0.55
2022-12-31T01:51:02.924Z,2.22
2022-12-31T01:53:52.283Z,0.93
2022-12-31T01:56:42.550Z,1.17
2022-12-31T01:59:30.958Z,0.75
2022-12-31T02:02:18.597Z,0.98
2022-12-31T02:05:08.899Z,0.70
2022-12-31T02:07:56.917Z,0.70
2022-12-31T02:10:44.634Z,1.07
2022-12-31T02:13:31.770Z,1.47
2022-12-31T02:16:24.049Z,0.82
2022-12-31T02:19:40.245Z,0.90
2022-12-31T02:23:03.942Z,0.98
2022-12-31T02:26:12.212Z,1.17
2022-12-31T02:29:20.287Z,2.30
2022-12-31T02:32:12.465Z,0.85
2022-12-31T02:35:08.857Z,0.80
2022-12-31T02:37:59.124Z,1.67
2022-12-31T02:40:47.778Z,1.02
2022-12-31T02:43:35.408Z,0.90
2022-12-31T02:46:28.664Z,1.17
2022-12-31T02:49:34.426Z,0.60
2022-12-31T02:52:30.840Z,2.35
2022-12-31T02:55:30.564Z,3.62
2022-12-31T02:58:53.832Z,3.22
2022-12-31T03:02:04.346Z,2.33
2022-12-31T03:04:56.587Z,3.37
2022-12-31T03:07:46.017Z,0.98
2022-12-31T03:10:33.253Z,2.95
2022-12-31T03:13:20.791Z,2.90
2022-12-31T03:16:08.221Z,2.62
2022-12-31T03:19:14.397Z,4.12
2022-12-31T03:22:19.632Z,0.78
2022-12-31T03:25:28.020Z,1.95
2022-12-31T03:28:18.675Z,3.27
2022-12-31T03:31:06.178Z,1.22
2022-12-31T03:33:55.257Z,2.85
2022-12-31T03:36:42.729Z,3.10
2022-12-31T03:39:30.418Z,2.12
2022-12-31T03:42:20.445Z,2.67
2022-12-31T03:45:08.923Z,2.33
2022-12-31T03:47:56.234Z,4.25
2022-12-31T03:50:44.113Z,3.70
2022-12-31T03:53:32.018Z,4.53
2022-12-31T03:56:19.623Z,1.98
2022-12-31T03:59:06.975Z,2.22
2022-12-31T04:01:55.041Z,2.80
2022-12-31T04:04:42.441Z,2.22
2022-12-31T04:07:29.932Z,2.22
2022-12-31T04:10:19.214Z,1.67
2022-12-31T04:13:06.563Z,1.57
2022-12-31T04:15:56.857Z,1.55
2022-12-31T04:18:44.113Z,1.90
2022-12-31T04:21:35.018Z,1.50
2022-12-31T04:24:24.981Z,1.62
2022-12-31T04:27:13.846Z,4.00
2022-12-31T04:30:01.610Z,1.72
2022-12-31T04:32:48.872Z,3.52
2022-12-31T04:35:36.372Z,1.67
2022-12-31T04:38:25.040Z,1.80
2022-12-31T04:41:18.418Z,2.27
2022-12-31T04:44:05.911Z,2.50
2022-12-31T04:46:56.336Z,2.58
2022-12-31T04:49:43.884Z,3.77
2022-12-31T04:52:34.608Z,3.22
2022-12-31T04:55:20.826Z,4.67
2022-12-31T04:58:08.354Z,3.62
2022-12-31T05:00:56.685Z,3.90
2022-12-31T05:03:44.803Z,4.75
2022-12-31T05:06:32.313Z,2.77
2022-12-31T05:09:19.986Z,4.45
2022-12-31T05:12:07.509Z,2.52
2022-12-31T05:14:55.035Z,5.10
2022-12-31T05:17:48.312Z,2.22
2022-12-31T05:20:36.152Z,5.30
2022-12-31T05:23:25.880Z,1.70
2022-12-31T05:26:13.177Z,1.75
2022-12-31T05:29:00.470Z,6.17
2022-12-31T05:31:47.872Z,4.22
2022-12-31T05:34:35.543Z,8.20
2022-12-31T05:37:24.443Z,2.65
2022-12-31T05:40:12.892Z,3.02
2022-12-31T05:43:00.081Z,2.55
2022-12-31T05:45:47.339Z,3.52
2022-12-31T05:48:34.848Z,3.00
2022-12-31T05:51:23.941Z,3.30
2022-12-31T05:54:11.254Z,3.08
2022-12-31T05:56:58.530Z,1.15
2022-12-31T05:59:45.967Z,2.95
2022-12-31T06:02:33.521Z,3.65
2022-12-31T06:05:26.109Z,2.30
2022-12-31T06:08:10.697Z,1.27
2022-12-31T06:10:58.637Z,2.98
2022-12-31T06:13:45.689Z,1.70
2022-12-31T06:16:33.421Z,2.52
2022-12-31T06:19:20.997Z,5.10
2022-12-31T06:22:08.710Z,2.50
2022-12-31T06:24:57.559Z,2.58
2022-12-31T06:27:44.946Z,1.60
2022-12-31T06:30:32.713Z,2.62
2022-12-31T06:33:19.939Z,2.45
2022-12-31T06:36:10.397Z,6.55
2022-12-31T06:38:57.953Z,2.67
2022-12-31T06:41:45.112Z,3.42
2022-12-31T06:44:32.577Z,2.35
2022-12-31T06:47:20.074Z,1.42
2022-12-31T06:50:08.306Z,2.45
2022-12-31T06:52:55.749Z,1.60
2022-12-31T06:55:44.840Z,2.45
2022-12-31T06:58:34.128Z,2.55
2022-12-31T07:01:41.471Z,2.87
2022-12-31T07:04:50.209Z,1.75
2022-12-31T07:07:54.043Z,1.67
2022-12-31T07:10:44.439Z,3.15
2022-12-31T07:13:40.337Z,1.07
2022-12-31T07:16:54.963Z,1.37
2022-12-31T07:19:57.543Z,2.67
2022-12-31T07:22:43.292Z,1.45
2022-12-31T07:25:31.023Z,4.45
2022-12-31T07:28:44.152Z,1.95
2022-12-31T07:31:44.052Z,2.85
2022-12-31T07:34:37.563Z,1.57
2022-12-31T07:37:48.577Z,0.93
2022-12-31T07:41:05.572Z,1.15
2022-12-31T07:44:04.394Z,3.55
2022-12-31T07:46:57.471Z,1.62
2022-12-31T07:49:45.950Z,4.83
2022-12-31T07:52:33.866Z,2.00
2022-12-31T07:55:22.194Z,2.37
2022-12-31T07:58:23.727Z,0.90
2022-12-31T08:01:16.901Z,1.47
2022-12-31T08:07:29.609Z,2.72
2022-12-31T08:10:20.117Z,2.75
2022-12-31T08:13:10.470Z,3.90
2022-12-31T08:15:58.028Z,2.98
2022-12-31T08:18:45.290Z,2.08
2022-12-31T08:21:38.892Z,3.10
2022-12-31T08:24:29.984Z,3.08
2022-12-31T08:27:43.366Z,5.15
2022-12-31T08:30:49.149Z,4.08
2022-12-31T08:33:49.242Z,3.00
2022-12-31T08:36:42.751Z,1.87
2022-12-31T08:39:33.414Z,4.87
2022-12-31T08:42:30.009Z,3.27
2022-12-31T08:45:29.740Z,2.90
2022-12-31T08:48:40.959Z,3.10
2022-12-31T08:51:28.428Z,2.72
2022-12-31T08:54:15.873Z,2.77
2022-12-31T08:57:09.542Z,3.20
2022-12-31T08:59:59.800Z,5.03
2022-12-31T09:03:05.546Z,4.20
2022-12-31T09:06:17.337Z,3.98
2022-12-31T09:09:25.805Z,3.98
2022-12-31T09:12:19.192Z,5.00
2022-12-31T09:15:12.754Z,3.90
2022-12-31T09:18:00.786Z,3.62
2022-12-31T09:20:48.326Z,3.52
2022-12-31T09:23:35.699Z,3.10
2022-12-31T09:26:32.391Z,5.15
2022-12-31T09:29:31.896Z,2.40
2022-12-31T09:32:41.595Z,2.33
2022-12-31T09:35:55.102Z,5.30
2022-12-31T09:38:57.721Z,2.77
2022-12-31T09:41:48.193Z,2.02
2022-12-31T09:45:11.964Z,4.33
2022-12-31T09:48:29.767Z,3.42
2022-12-31T09:51:25.885Z,4.70
2022-12-31T09:54:25.029Z,2.33
2022-12-31T09:57:15.678Z,7.62
2022-12-31T10:00:06.324Z,1.52
2022-12-31T10:03:03.043Z,4.15
2022-12-31T10:06:08.503Z,2.62
2022-12-31T10:09:24.419Z,4.08
2022-12-31T10:12:43.500Z,2.90
2022-12-31T10:15:42.856Z,4.70
2022-12-31T10:18:54.352Z,5.78
2022-12-31T10:22:08.845Z,7.53
2022-12-31T10:25:04.749Z,3.17
2022-12-31T10:28:19.422Z,3.62
2022-12-31T10:31:34.099Z,3.50
2022-12-31T10:34:24.908Z,2.02
2022-12-31T10:37:22.884Z,2.37
2022-12-31T10:40:42.096Z,3.98
2022-12-31T10:43:48.900Z,4.58
2022-12-31T10:46:39.368Z,3.37
2022-12-31T10:49:32.617Z,3.85
2022-12-31T10:52:55.103Z,4.75
2022-12-31T10:56:09.158Z,3.15
2022-12-31T10:59:16.268Z,11.28
2022-12-31T11:02:23.404Z,2.20
2022-12-31T11:08:37.626Z,4.28
2022-12-31T11:11:56.543Z,2.20
2022-12-31T11:14:53.068Z,5.37
2022-12-31T11:18:09.179Z,1.47
2022-12-31T11:21:11.582Z,3.40
2022-12-31T11:24:25.677Z,3.05
2022-12-31T11:27:24.160Z,2.60
2022-12-31T11:30:29.479Z,2.70
2022-12-31T11:33:52.599Z,4.85
2022-12-31T11:36:45.831Z,4.83
2022-12-31T11:39:54.518Z,2.42
2022-12-31T11:42:50.235Z,2.92
2022-12-31T11:45:55.703Z,3.33
2022-12-31T11:49:10.311Z,3.47
2022-12-31T11:52:29.523Z,5.83
2022-12-31T11:55:34.660Z,2.67
2022-12-31T11:58:24.931Z,3.45
2022-12-31T12:01:27.474Z,6.00
2022-12-31T12:04:14.708Z,3.90
2022-12-31T12:07:02.158Z,2.25
2022-12-31T12:09:50.890Z,5.17
2022-12-31T12:12:42.664Z,2.92
2022-12-31T12:15:35.590Z,3.62
2022-12-31T12:18:38.019Z,3.58
2022-12-31T12:21:26.622Z,4.22
2022-12-31T12:24:29.121Z,4.05
2022-12-31T12:27:25.552Z,2.50
2022-12-31T12:30:28.146Z,1.40
2022-12-31T12:33:20.306Z,7.25
2022-12-31T12:36:13.465Z,4.58
2022-12-31T12:39:06.624Z,6.00
2022-12-31T12:42:16.990Z,6.72
2022-12-31T12:45:19.435Z,2.67
2022-12-31T12:48:09.697Z,2.20
2022-12-31T12:50:56.837Z,3.83
2022-12-31T12:54:01.931Z,4.42
2022-12-31T12:57:12.134Z,5.92
2022-12-31T13:00:20.854Z,3.12
2022-12-31T13:03:17.435Z,1.72
2022-12-31T13:06:16.540Z,6.10
2022-12-31T13:09:21.983Z,2.37
2022-12-31T13:12:15.220Z,7.92
2022-12-31T13:15:05.834Z,1.70
2022-12-31T13:18:14.209Z,3.62
2022-12-31T13:21:10.542Z,2.52
2022-12-31T13:24:03.867Z,4.65
2022-12-31T13:26:57.084Z,2.52
2022-12-31T13:29:47.227Z,2.80
2022-12-31T13:32:52.650Z,2.45
2022-12-31T13:35:45.817Z,2.87
2022-12-31T13:38:39.583Z,2.52
2022-12-31T13:41:30.052Z,4.55
2022-12-31T13:44:35.661Z,2.02
2022-12-31T13:47:32.207Z,2.35
2022-12-31T13:50:34.380Z,2.15
2022-12-31T13:53:30.858Z,3.60
2022-12-31T13:56:23.935Z,1.57
2022-12-31T13:59:17.502Z,1.42
2022-12-31T14:02:10.844Z,4.20
2022-12-31T14:05:09.811Z,3.52
2022-12-31T14:07:59.982Z,5.12
2022-12-31T14:11:05.494Z,3.15
2022-12-31T14:13:59.120Z,4.75
2022-12-31T14:17:01.745Z,2.90
2022-12-31T14:19:55.418Z,3.55
2022-12-31T14:23:02.588Z,5.05
2022-12-31T14:26:09.895Z,2.02
2022-12-31T14:29:12.250Z,2.75
2022-12-31T14:32:05.576Z,2.37
2022-12-31T14:35:21.408Z,2.05
2022-12-31T14:38:23.936Z,4.17
2022-12-31T14:41:20.292Z,2.12
2022-12-31T14:44:19.171Z,2.00
2022-12-31T14:47:15.252Z,5.65
2022-12-31T14:50:14.457Z,1.83
2022-12-31T14:53:06.165Z,3.62
2022-12-31T14:56:02.296Z,3.77
2022-12-31T14:58:58.335Z,2.67
2022-12-31T15:01:46.489Z,3.33
2022-12-31T15:04:47.068Z,2.70
2022-12-31T15:07:49.410Z,2.30
2022-12-31T15:11:00.788Z,1.75
2022-12-31T15:14:24.545Z,2.90
2022-12-31T15:17:24.043Z,4.47
2022-12-31T15:20:39.934Z,1.95
2022-12-31T15:23:36.535Z,2.83
2022-12-31T15:26:31.378Z,2.02
2022-12-31T15:29:33.735Z,1.95
2022-12-31T15:32:27.771Z,2.77
2022-12-31T15:35:27.428Z,3.17
2022-12-31T15:38:17.907Z,2.77
2022-12-31T15:41:29.424Z,3.98
2022-12-31T15:44:25.908Z,2.75
2022-12-31T15:47:28.764Z,2.52
2022-12-31T15:50:24.704Z,4.25
2022-12-31T15:53:15.182Z,2.22
2022-12-31T15:56:04.112Z,2.52
2022-12-31T15:58:54.542Z,3.52
2022-12-31T16:01:44.203Z,4.20
2022-12-31T16:04:36.827Z,3.45
2022-12-31T16:07:27.364Z,2.40
2022-12-31T16:10:17.825Z,1.65
2022-12-31T16:13:06.361Z,5.03
2022-12-31T16:16:02.068Z,3.25
2022-12-31T16:18:53.014Z,3.87
2022-12-31T16:21:40.500Z,5.17
2022-12-31T16:24:30.802Z,5.08
2022-12-31T16:27:18.881Z,4.87
2022-12-31T16:30:21.189Z,4.20
2022-12-31T16:33:11.461Z,4.80
2022-12-31T16:36:00.994Z,5.80
2022-12-31T16:38:49.146Z,3.83
2022-12-31T16:41:44.196Z,3.85
2022-12-31T16:44:31.738Z,4.67
2022-12-31T16:47:30.919Z,6.12
2022-12-31T16:50:21.364Z,5.40
2022-12-31T16:53:09.056Z,3.85
2022-12-31T16:55:59.922Z,4.95
2022-12-31T16:58:47.543Z,4.72
2022-12-31T17:01:38.120Z,4.05
2022-12-31T17:04:25.924Z,8.30
2022-12-31T17:07:34.788Z,5.90
2022-12-31T17:10:27.951Z,4.47
2022-12-31T17:13:28.289Z,6.08
2022-12-31T17:16:07.034Z,4.30
2022-12-31T17:18:54.530Z,4.72
2022-12-31T17:21:44.878Z,4.33
2022-12-31T17:24:33.517Z,5.78
2022-12-31T17:27:21.023Z,4.22
2022-12-31T17:30:36.624Z,4.37
2022-12-31T17:33:26.982Z,4.45
2022-12-31T17:36:23.442Z,4.70
2022-12-31T17:39:22.532Z,3.20
2022-12-31T17:42:11.091Z,6.22
2022-12-31T17:45:01.529Z,7.17
2022-12-31T17:47:52.268Z,7.20
2022-12-31T17:50:50.573Z,5.83
2022-12-31T17:53:37.939Z,4.45
2022-12-31T17:56:25.469Z,8.78
2022-12-31T17:59:21.504Z,8.00
2022-12-31T18:02:12.339Z,7.75
2022-12-31T18:04:59.414Z,11.00
2022-12-31T18:07:47.053Z,10.78
2022-12-31T18:10:56.585Z,8.08
2022-12-31T18:13:44.013Z,7.72
2022-12-31T18:16:31.943Z,3.83
2022-12-31T18:19:45.600Z,4.00
2022-12-31T18:22:07.932Z,5.10
2022-12-31T18:24:55.698Z,4.90
2022-12-31T18:27:43.120Z,4.00
2022-12-31T18:30:30.599Z,4.03
2022-12-31T18:33:20.065Z,3.17
2022-12-31T18:36:13.083Z,3.37
2022-12-31T18:39:00.583Z,4.70
2022-12-31T18:41:49.687Z,11.30
2022-12-31T18:44:36.900Z,7.25
2022-12-31T18:47:24.128Z,7.70
2022-12-31T18:50:16.590Z,4.45
2022-12-31T18:53:04.360Z,6.78
2022-12-31T18:55:54.578Z,3.62
2022-12-31T18:58:42.088Z,2.25
2022-12-31T19:01:35.491Z,3.27
2022-12-31T19:04:27.890Z,5.45
2022-12-31T19:07:11.839Z,7.05
2022-12-31T19:09:59.472Z,3.22
2022-12-31T19:12:47.273Z,3.60
2022-12-31T19:15:37.706Z,5.50
2022-12-31T19:18:24.823Z,3.60
2022-12-31T19:21:23.737Z,5.50
2022-12-31T19:24:23.115Z,7.03
2022-12-31T19:27:11.106Z,6.17
2022-12-31T19:29:58.518Z,6.30
2022-12-31T19:32:46.345Z,6.58
2022-12-31T19:35:33.926Z,7.33
2022-12-31T19:38:23.712Z,9.48
2022-12-31T19:41:16.786Z,7.33
2022-12-31T19:44:04.244Z,7.53
2022-12-31T19:46:51.682Z,9.00
2022-12-31T19:49:39.232Z,8.68
2022-12-31T19:52:26.743Z,10.20
2022-12-31T19:55:17.182Z,9.30
2022-12-31T19:58:04.324Z,10.72
2022-12-31T20:00:57.056Z,11.93
2022-12-31T20:03:40.580Z,10.28
2022-12-31T20:06:28.167Z,17.42
2022-12-31T20:09:15.587Z,8.38
2022-12-31T20:12:02.762Z,10.28
2022-12-31T20:14:50.341Z,10.23
2022-12-31T20:17:37.748Z,11.12
2022-12-31T20:20:25.960Z,12.75
2022-12-31T20:23:13.363Z,9.18
2022-12-31T20:26:02.091Z,7.30
2022-12-31T20:28:49.598Z,6.45
2022-12-31T20:31:36.949Z,6.90
2022-12-31T20:34:24.453Z,2.75
2022-12-31T20:37:11.913Z,3.95
2022-12-31T20:39:59.165Z,3.08
2022-12-31T20:42:46.650Z,2.83
2022-12-31T20:45:34.028Z,4.65
2022-12-31T20:48:21.325Z,3.27
2022-12-31T20:51:09.139Z,3.95
2022-12-31T20:53:59.175Z,9.83
2022-12-31T20:56:46.440Z,6.90
2022-12-31T20:59:34.108Z,6.85
2022-12-31T21:02:29.498Z,8.30
2022-12-31T21:05:10.987Z,5.72
2022-12-31T21:07:58.102Z,6.78
2022-12-31T21:10:45.397Z,6.03
2022-12-31T21:13:32.608Z,7.97
2022-12-31T21:16:19.865Z,7.97
2022-12-31T21:19:07.539Z,8.35
2022-12-31T21:21:54.671Z,8.75
2022-12-31T21:24:41.904Z,12.82
2022-12-31T21:27:30.255Z,7.33
2022-12-31T21:30:19.112Z,4.47
2022-12-31T21:33:06.255Z,5.35
2022-12-31T21:35:54.596Z,5.70
2022-12-31T21:38:42.562Z,3.02
2022-12-31T21:41:48.121Z,4.90
2022-12-31T21:44:35.252Z,4.37
2022-12-31T21:47:47.104Z,4.17
2022-12-31T21:50:29.681Z,3.27
2022-12-31T21:53:26.295Z,3.02
2022-12-31T21:56:13.230Z,5.58
2022-12-31T21:59:18.686Z,4.55
2022-12-31T22:02:29.162Z,5.92
2022-12-31T22:05:21.604Z,6.83
2022-12-31T22:08:05.802Z,4.75
2022-12-31T22:10:55.028Z,5.03
2022-12-31T22:13:42.993Z,5.80
2022-12-31T22:16:30.316Z,6.37
2022-12-31T22:19:17.873Z,6.92
2022-12-31T22:22:06.249Z,6.20
2022-12-31T22:24:55.813Z,9.50
2022-12-31T22:27:53.058Z,4.97
2022-12-31T22:30:32.333Z,4.40
2022-12-31T22:33:19.998Z,6.92
2022-12-31T22:36:10.276Z,10.35
2022-12-31T22:38:58.584Z,11.65
2022-12-31T22:41:46.568Z,14.10
2022-12-31T22:44:34.150Z,10.03
2022-12-31T22:47:21.393Z,11.53
2022-12-31T22:50:08.898Z,13.53
2022-12-31T22:52:56.433Z,18.15
2022-12-31T22:55:44.040Z,15.35
2022-12-31T22:58:31.363Z,17.77
2022-12-31T23:01:22.364Z,28.95
2022-12-31T23:04:09.852Z,46.58
2022-12-31T23:06:57.757Z,90.95
2022-12-31T23:10:02.737Z,197.47
2022-12-31T23:12:50.085Z,190.53
2022-12-31T23:15:55.521Z,206.85
2022-12-31T23:19:05.397Z,204.40
2022-12-31T23:22:07.796Z,228.10
2022-12-31T23:24:55.613Z,255.90
2022-12-31T23:27:45.078Z,284.52
2022-12-31T23:30:32.252Z,254.78
2022-12-31T23:33:22.277Z,224.65
2022-12-31T23:36:09.972Z,241.73
2022-12-31T23:38:57.753Z,226.73
2022-12-31T23:41:44.920Z,245.02
2022-12-31T23:44:32.102Z,226.95
2022-12-31T23:47:20.140Z,207.57
2022-12-31T23:50:08.162Z,210.25
2022-12-31T23:52:55.417Z,243.52
2022-12-31T23:55:42.623Z,226.95
2022-12-31T23:58:30.296Z,218.42
